createdAt,value
2022-12-17T00:01:09.755Z,71.38
2022-12-17T00:03:56.983Z,70.79
2022-12-17T00:06:42.925Z,70.18
2022-12-17T00:09:28.913Z,70.53
2022-12-17T00:12:14.890Z,69.95
2022-12-17T00:15:00.807Z,70.60
2022-12-17T00:17:46.896Z,71.31
2022-12-17T00:20:33.487Z,72.11
2022-12-17T00:23:21.023Z,72.52
2022-12-17T00:26:13.998Z,72.46
2022-12-17T00:29:00.504Z,73.77
2022-12-17T00:31:48.950Z,71.98
2022-12-17T00:34:34.698Z,72.17
2022-12-17T00:37:21.195Z,71.78
2022-12-17T00:40:07.038Z,71.45
2022-12-17T00:42:53.144Z,71.84
2022-12-17T00:45:42.163Z,72.42
2022-12-17T00:48:28.279Z,72.37
2022-12-17T00:51:14.257Z,73.02
2022-12-17T00:54:00.626Z,73.47
2022-12-17T00:56:46.555Z,72.88
2022-12-17T00:59:32.576Z,73.17
2022-12-17T01:02:18.975Z,72.72
2022-12-17T01:05:05.403Z,72.03
2022-12-17T01:07:51.465Z,72.61
2022-12-17T01:10:38.055Z,72.29
2022-12-17T01:13:24.049Z,72.26
2022-12-17T01:16:10.250Z,70.75
2022-12-17T01:18:57.016Z,70.49
2022-12-17T01:21:42.918Z,71.50
2022-12-17T01:24:28.984Z,71.45
2022-12-17T01:27:15.103Z,70.63
2022-12-17T01:30:01.119Z,70.26
2022-12-17T01:32:47.171Z,70.46
2022-12-17T01:35:33.227Z,70.50
2022-12-17T01:38:19.283Z,70.45
2022-12-17T01:41:10.854Z,70.82
2022-12-17T01:43:57.746Z,71.38
2022-12-17T01:46:44.977Z,71.23
2022-12-17T01:49:31.769Z,71.89
2022-12-17T01:52:18.784Z,71.29
2022-12-17T01:55:05.508Z,71.98
2022-12-17T01:57:51.462Z,71.39
2022-12-17T02:00:38.635Z,72.12
2022-12-17T02:03:32.619Z,72.08
2022-12-17T02:06:43.815Z,71.83
2022-12-17T02:09:55.068Z,70.93
2022-12-17T02:12:47.986Z,72.39
2022-12-17T02:16:03.344Z,71.72
2022-12-17T02:18:56.099Z,71.32
2022-12-17T02:21:43.612Z,71.07
2022-12-17T02:24:44.504Z,72.44
2022-12-17T02:27:32.376Z,71.69
2022-12-17T02:30:23.534Z,71.85
2022-12-17T02:33:10.304Z,72.71
2022-12-17T02:36:13.287Z,73.35
2022-12-17T02:38:59.311Z,73.16
2022-12-17T02:42:06.455Z,71.92
2022-12-17T02:44:53.780Z,71.34
2022-12-17T02:47:40.999Z,71.00
2022-12-17T02:50:27.434Z,71.13
2022-12-17T02:53:14.259Z,69.83
2022-12-17T02:56:01.676Z,69.19
2022-12-17T02:58:49.875Z,69.14
2022-12-17T03:01:36.315Z,70.57
2022-12-17T03:04:23.463Z,72.93
2022-12-17T03:07:09.568Z,71.71
2022-12-17T03:09:56.447Z,69.50
2022-12-17T03:12:42.930Z,69.94
2022-12-17T03:15:28.847Z,68.87
2022-12-17T03:18:15.062Z,68.94
2022-12-17T03:21:01.071Z,69.53
2022-12-17T03:23:46.935Z,67.97
2022-12-17T03:26:33.591Z,67.50
2022-12-17T03:29:19.513Z,68.74
2022-12-17T03:32:05.503Z,69.31
2022-12-17T03:34:51.471Z,68.31
2022-12-17T03:37:37.378Z,68.78
2022-12-17T03:40:23.924Z,68.49
2022-12-17T03:43:09.842Z,68.53
2022-12-17T03:45:55.871Z,69.62
2022-12-17T03:48:42.300Z,68.25
2022-12-17T03:51:28.235Z,69.25
2022-12-17T03:54:14.179Z,68.79
2022-12-17T03:57:00.190Z,68.18
2022-12-17T03:59:46.177Z,68.01
2022-12-17T04:02:32.353Z,69.80
2022-12-17T04:05:20.488Z,69.19
2022-12-17T04:08:06.838Z,69.01
2022-12-17T04:10:53.238Z,70.07
2022-12-17T04:13:41.324Z,69.55
2022-12-17T04:16:27.880Z,69.75
2022-12-17T04:19:13.959Z,69.62
2022-12-17T04:22:00.286Z,69.32
2022-12-17T04:24:46.503Z,69.22
2022-12-17T04:27:32.703Z,69.56
2022-12-17T04:30:18.785Z,70.62
2022-12-17T04:33:04.707Z,70.55
2022-12-17T04:35:50.832Z,70.04
2022-12-17T04:38:36.856Z,69.59
2022-12-17T04:41:23.199Z,68.93
2022-12-17T04:44:09.123Z,70.33
2022-12-17T04:46:54.959Z,70.35
2022-12-17T04:49:41.407Z,70.54
2022-12-17T04:52:27.386Z,69.98
2022-12-17T04:55:13.359Z,69.76
2022-12-17T04:57:59.446Z,69.83
2022-12-17T05:00:45.433Z,69.67
2022-12-17T05:03:33.574Z,68.70
2022-12-17T05:06:20.714Z,67.83
2022-12-17T05:09:06.627Z,68.20
2022-12-17T05:11:52.897Z,67.62
2022-12-17T05:14:38.990Z,68.10
2022-12-17T05:17:25.126Z,68.24
2022-12-17T05:20:11.205Z,67.30
2022-12-17T05:22:57.259Z,67.04
2022-12-17T05:25:43.122Z,67.56
2022-12-17T05:28:29.163Z,67.90
2022-12-17T05:31:15.264Z,67.22
2022-12-17T05:34:01.367Z,67.23
2022-12-17T05:36:47.382Z,68.01
2022-12-17T05:39:33.953Z,67.15
2022-12-17T05:42:19.811Z,67.11
2022-12-17T05:45:05.896Z,67.55
2022-12-17T05:47:51.824Z,65.97
2022-12-17T05:50:37.790Z,66.36
2022-12-17T05:53:24.543Z,66.06
2022-12-17T05:56:11.351Z,65.94
2022-12-17T05:58:58.014Z,65.08
2022-12-17T06:01:44.142Z,65.53
2022-12-17T06:04:30.414Z,66.27
2022-12-17T06:07:16.330Z,65.83
2022-12-17T06:10:02.387Z,66.28
2022-12-17T06:12:48.420Z,66.10
2022-12-17T06:15:34.520Z,67.08
2022-12-17T06:18:20.535Z,65.88
2022-12-17T06:21:07.210Z,65.80
2022-12-17T06:23:53.267Z,66.80
2022-12-17T06:26:39.766Z,66.57
2022-12-17T06:29:25.818Z,66.26
2022-12-17T06:32:11.928Z,66.41
2022-12-17T06:34:57.916Z,66.05
2022-12-17T06:37:44.341Z,65.90
2022-12-17T06:40:30.434Z,65.84
2022-12-17T06:43:16.586Z,65.19
2022-12-17T06:46:02.852Z,65.22
2022-12-17T06:48:48.866Z,65.23
2022-12-17T06:51:34.715Z,65.18
2022-12-17T06:54:20.680Z,65.05
2022-12-17T06:57:06.681Z,64.52
2022-12-17T06:59:52.708Z,65.71
2022-12-17T07:02:38.788Z,65.82
2022-12-17T07:05:25.035Z,65.46
2022-12-17T07:08:18.181Z,65.50
2022-12-17T07:11:04.521Z,65.98
2022-12-17T07:13:50.331Z,65.74
2022-12-17T07:16:36.797Z,64.61
2022-12-17T07:19:27.044Z,64.71
2022-12-17T07:22:14.904Z,65.33
2022-12-17T07:25:00.744Z,65.73
2022-12-17T07:27:46.903Z,70.38
2022-12-17T07:30:49.208Z,67.10
2022-12-17T07:33:38.985Z,64.32
2022-12-17T07:36:25.167Z,64.06
2022-12-17T07:39:11.764Z,64.11
2022-12-17T07:41:57.658Z,64.73
2022-12-17T07:44:43.596Z,64.14
2022-12-17T07:47:29.708Z,64.73
2022-12-17T07:50:15.650Z,64.79
2022-12-17T07:53:01.619Z,65.01
2022-12-17T07:55:47.685Z,65.29
2022-12-17T07:58:33.640Z,64.99
2022-12-17T08:01:20.627Z,64.79
2022-12-17T08:04:07.101Z,64.80
2022-12-17T08:06:58.401Z,64.70
2022-12-17T08:09:46.996Z,64.40
2022-12-17T08:12:34.074Z,63.72
2022-12-17T08:15:40.239Z,64.22
2022-12-17T08:18:27.016Z,64.21
2022-12-17T08:21:13.495Z,63.79
2022-12-17T08:23:59.261Z,63.59
2022-12-17T08:26:48.190Z,63.19
2022-12-17T08:29:34.193Z,63.23
2022-12-17T08:32:20.323Z,63.09
2022-12-17T08:35:06.339Z,63.26
2022-12-17T08:37:52.584Z,63.23
2022-12-17T08:40:38.737Z,63.10
2022-12-17T08:43:24.983Z,62.78
2022-12-17T08:46:11.472Z,62.55
2022-12-17T08:48:57.949Z,62.23
2022-12-17T08:51:44.422Z,61.81
2022-12-17T08:54:30.248Z,62.46
2022-12-17T08:57:26.985Z,62.39
2022-12-17T09:00:17.175Z,62.28
2022-12-17T09:03:03.437Z,61.66
2022-12-17T09:05:49.918Z,62.78
2022-12-17T09:08:35.848Z,63.19
2022-12-17T09:11:21.861Z,62.74
2022-12-17T09:14:07.831Z,62.86
2022-12-17T09:16:54.367Z,63.03
2022-12-17T09:19:40.268Z,61.83
2022-12-17T09:22:26.396Z,63.28
2022-12-17T09:25:12.382Z,60.96
2022-12-17T09:27:58.982Z,61.43
2022-12-17T09:30:44.924Z,62.20
2022-12-17T09:33:35.771Z,61.81
2022-12-17T09:36:25.208Z,62.09
2022-12-17T09:39:11.242Z,61.83
2022-12-17T09:42:29.516Z,62.06
2022-12-17T09:45:35.010Z,62.64
2022-12-17T09:48:58.539Z,62.14
2022-12-17T09:51:46.521Z,62.01
2022-12-17T09:55:01.659Z,61.68
2022-12-17T09:57:53.999Z,61.72
2022-12-17T10:01:01.074Z,61.31
2022-12-17T10:03:48.329Z,60.99
2022-12-17T10:06:43.239Z,61.92
2022-12-17T10:09:33.043Z,61.33
2022-12-17T10:12:27.564Z,61.82
2022-12-17T10:15:13.712Z,61.33
2022-12-17T10:18:00.076Z,62.27
2022-12-17T10:20:52.718Z,60.81
2022-12-17T10:23:52.168Z,62.53
2022-12-17T10:26:50.057Z,59.65
2022-12-17T10:29:47.423Z,59.36
2022-12-17T10:32:34.691Z,58.75
2022-12-17T10:35:42.417Z,58.40
2022-12-17T10:38:39.133Z,58.70
2022-12-17T10:41:49.863Z,58.69
2022-12-17T10:44:43.952Z,65.81
2022-12-17T10:47:32.000Z,58.47
2022-12-17T10:50:20.386Z,58.57
2022-12-17T10:53:06.848Z,57.87
2022-12-17T10:55:53.889Z,56.74
2022-12-17T10:58:39.870Z,57.06
2022-12-17T11:01:29.825Z,57.57
2022-12-17T11:04:17.423Z,58.17
2022-12-17T11:07:08.543Z,58.78
2022-12-17T11:10:09.184Z,58.37
2022-12-17T11:13:03.111Z,57.49
2022-12-17T11:16:01.531Z,57.33
2022-12-17T11:19:25.882Z,56.26
2022-12-17T11:22:15.288Z,56.38
2022-12-17T11:25:08.185Z,56.84
2022-12-17T11:28:00.302Z,57.46
2022-12-17T11:30:47.168Z,57.71
2022-12-17T11:33:40.775Z,58.17
2022-12-17T11:36:44.108Z,57.25
2022-12-17T11:39:34.850Z,57.55
2022-12-17T11:42:30.537Z,57.36
2022-12-17T11:45:24.654Z,57.21
2022-12-17T11:48:20.214Z,58.06
2022-12-17T11:51:21.495Z,58.30
2022-12-17T11:54:16.900Z,59.15
2022-12-17T11:57:06.839Z,58.37
2022-12-17T12:00:45.610Z,57.91
2022-12-17T12:03:53.769Z,57.58
2022-12-17T12:07:06.459Z,57.90
2022-12-17T12:10:03.674Z,57.86
2022-12-17T12:12:58.755Z,59.09
2022-12-17T12:15:50.495Z,59.14
2022-12-17T12:19:07.335Z,59.06
2022-12-17T12:21:58.876Z,58.10
2022-12-17T12:25:02.202Z,59.13
2022-12-17T12:28:31.808Z,59.76
2022-12-17T12:31:48.371Z,59.48
2022-12-17T12:34:42.344Z,58.85
2022-12-17T12:37:33.576Z,58.08
2022-12-17T12:40:29.918Z,58.30
2022-12-17T12:43:23.096Z,58.48
2022-12-17T12:46:18.732Z,59.14
2022-12-17T12:49:53.128Z,59.07
2022-12-17T12:52:41.791Z,58.85
2022-12-17T12:55:27.744Z,59.20
2022-12-17T12:58:17.693Z,58.62
2022-12-17T13:01:06.958Z,57.92
2022-12-17T13:03:59.363Z,58.78
2022-12-17T13:06:54.289Z,58.54
2022-12-17T13:09:34.789Z,58.34
2022-12-17T13:12:02.692Z,58.66
2022-12-17T13:14:55.029Z,59.26
2022-12-17T13:17:34.675Z,59.72
2022-12-17T13:20:25.088Z,59.42
2022-12-17T13:23:09.822Z,58.77
2022-12-17T13:25:37.589Z,59.10
2022-12-17T13:28:05.737Z,59.34
2022-12-17T13:30:38.366Z,59.58
2022-12-17T13:33:34.656Z,60.18
2022-12-17T13:36:05.035Z,60.63
2022-12-17T13:38:55.630Z,60.07
2022-12-17T13:41:29.675Z,60.36
2022-12-17T13:43:59.676Z,59.83
2022-12-17T13:46:47.405Z,59.72
2022-12-17T13:49:27.070Z,60.49
2022-12-17T13:52:16.855Z,60.73
2022-12-17T13:54:44.842Z,60.23
2022-12-17T13:57:20.880Z,59.78
2022-12-17T13:59:56.913Z,59.27
2022-12-17T14:02:36.374Z,59.11
2022-12-17T14:05:23.700Z,59.50
2022-12-17T14:07:51.492Z,58.82
2022-12-17T14:10:19.462Z,58.64
2022-12-17T14:12:47.403Z,59.03
2022-12-17T14:15:24.395Z,59.80
2022-12-17T14:17:52.899Z,59.05
2022-12-17T14:20:29.827Z,59.39
2022-12-17T14:23:05.277Z,59.18
2022-12-17T14:25:36.271Z,59.27
2022-12-17T14:28:07.121Z,59.85
2022-12-17T14:31:17.368Z,60.19
2022-12-17T14:33:31.832Z,59.84
2022-12-17T14:36:05.828Z,59.44
2022-12-17T14:38:42.951Z,59.86
2022-12-17T14:41:37.752Z,60.24
2022-12-17T14:44:06.291Z,60.71
2022-12-17T14:46:34.710Z,60.09
2022-12-17T14:49:04.896Z,59.53
2022-12-17T14:51:36.468Z,60.57
2022-12-17T14:54:29.197Z,60.10
2022-12-17T14:56:58.617Z,59.44
2022-12-17T14:59:34.676Z,59.23
2022-12-17T15:02:28.319Z,59.83
2022-12-17T15:04:57.180Z,59.13
2022-12-17T15:07:27.110Z,59.38
2022-12-17T15:09:55.276Z,59.97
2022-12-17T15:12:24.411Z,59.48
2022-12-17T15:14:52.310Z,58.90
2022-12-17T15:17:19.688Z,59.15
2022-12-17T15:19:51.329Z,59.24
2022-12-17T15:22:23.351Z,60.25
2022-12-17T15:24:50.734Z,60.72
2022-12-17T15:27:18.043Z,61.62
2022-12-17T15:29:46.044Z,61.54
2022-12-17T15:32:24.032Z,62.37
2022-12-17T15:34:51.652Z,62.21
2022-12-17T15:37:25.355Z,62.10
2022-12-17T15:39:56.406Z,62.61
2022-12-17T15:42:42.499Z,62.15
2022-12-17T15:45:10.239Z,62.22
2022-12-17T15:47:38.287Z,61.90
2022-12-17T15:50:06.079Z,61.11
2022-12-17T15:52:33.677Z,61.53
2022-12-17T15:55:01.007Z,61.29
2022-12-17T15:57:28.327Z,60.44
2022-12-17T15:59:55.946Z,60.55
2022-12-17T16:02:23.434Z,61.21
2022-12-17T16:04:51.156Z,61.70
2022-12-17T16:07:26.648Z,61.74
2022-12-17T16:10:01.641Z,60.55
2022-12-17T16:12:32.607Z,60.58
2022-12-17T16:15:03.618Z,61.70
2022-12-17T16:17:31.130Z,61.13
2022-12-17T16:19:58.586Z,61.39
2022-12-17T16:22:27.416Z,62.30
2022-12-17T16:24:54.931Z,61.61
2022-12-17T16:27:22.559Z,62.07
2022-12-17T16:29:50.185Z,62.37
2022-12-17T16:32:17.911Z,61.99
2022-12-17T16:34:45.331Z,61.54
2022-12-17T16:37:12.959Z,62.59
2022-12-17T16:39:40.345Z,63.17
2022-12-17T16:42:11.461Z,63.07
2022-12-17T16:44:39.085Z,62.26
2022-12-17T16:47:06.560Z,62.21
2022-12-17T16:49:34.146Z,61.67
2022-12-17T16:52:03.359Z,62.76
2022-12-17T16:54:32.475Z,63.76
2022-12-17T16:57:02.809Z,63.99
2022-12-17T16:59:30.830Z,62.97
2022-12-17T17:01:58.302Z,63.20
2022-12-17T17:04:28.813Z,63.22
2022-12-17T17:06:57.184Z,64.89
2022-12-17T17:09:25.303Z,63.54
2022-12-17T17:11:55.338Z,62.50
2022-12-17T17:14:24.030Z,62.22
2022-12-17T17:16:52.037Z,62.59
2022-12-17T17:19:19.688Z,61.78
2022-12-17T17:21:53.954Z,62.33
2022-12-17T17:24:25.390Z,63.02
2022-12-17T17:26:54.322Z,62.87
2022-12-17T17:29:22.387Z,62.91
2022-12-17T17:34:38.202Z,62.86
2022-12-17T17:37:05.711Z,62.32
2022-12-17T17:39:34.241Z,62.22
2022-12-17T17:42:02.024Z,61.97
2022-12-17T17:44:29.391Z,62.51
2022-12-17T17:46:56.848Z,61.21
2022-12-17T17:49:24.528Z,61.77
2022-12-17T17:52:09.065Z,63.00
2022-12-17T17:54:39.473Z,62.06
2022-12-17T17:57:08.283Z,61.11
2022-12-17T17:59:35.655Z,60.52
2022-12-17T18:02:03.616Z,61.11
2022-12-17T18:04:31.878Z,61.16
2022-12-17T18:09:46.810Z,60.63
2022-12-17T18:12:32.786Z,60.41
2022-12-17T18:15:17.792Z,59.47
2022-12-17T18:17:49.579Z,59.45
2022-12-17T18:20:17.398Z,60.00
2022-12-17T18:22:46.349Z,60.17
2022-12-17T18:25:15.658Z,60.10
2022-12-17T18:27:43.871Z,60.04
2022-12-17T18:30:12.023Z,59.76
2022-12-17T18:32:39.470Z,59.35
2022-12-17T18:35:07.580Z,58.58
2022-12-17T18:37:34.875Z,57.99
2022-12-17T18:40:02.577Z,57.37
2022-12-17T18:42:48.902Z,57.80
2022-12-17T18:45:16.651Z,58.88
2022-12-17T18:47:44.746Z,58.46
2022-12-17T18:50:13.026Z,57.94
2022-12-17T18:52:41.604Z,57.69
2022-12-17T18:55:09.232Z,56.38
2022-12-17T18:57:36.577Z,56.81
2022-12-17T19:00:04.804Z,56.71
2022-12-17T19:02:32.504Z,56.21
2022-12-17T19:04:59.883Z,58.06
2022-12-17T19:07:27.264Z,56.62
2022-12-17T19:09:54.840Z,56.47
2022-12-17T19:12:22.158Z,56.92
2022-12-17T19:14:49.524Z,56.55
2022-12-17T19:17:17.190Z,56.59
2022-12-17T19:19:44.518Z,56.50
2022-12-17T19:22:11.839Z,56.01
2022-12-17T19:24:39.434Z,56.58
2022-12-17T19:27:06.766Z,57.07
2022-12-17T19:29:34.781Z,56.89
2022-12-17T19:32:02.522Z,57.56
2022-12-17T19:34:29.941Z,57.85
2022-12-17T19:36:57.283Z,57.19
2022-12-17T19:39:24.936Z,57.96
2022-12-17T19:41:52.411Z,58.65
2022-12-17T19:44:20.905Z,58.06
2022-12-17T19:46:48.506Z,58.98
2022-12-17T19:49:16.526Z,59.97
2022-12-17T19:51:44.773Z,60.00
2022-12-17T19:54:14.739Z,59.21
2022-12-17T19:56:43.647Z,59.81
2022-12-17T19:59:11.691Z,57.96
2022-12-17T20:01:41.658Z,57.45
2022-12-17T20:04:14.180Z,58.85
2022-12-17T20:06:42.459Z,58.64
2022-12-17T20:09:10.401Z,58.39
2022-12-17T20:11:37.877Z,58.51
2022-12-17T20:14:13.107Z,58.15
2022-12-17T20:16:43.620Z,58.01
2022-12-17T20:19:13.683Z,57.45
2022-12-17T20:21:41.503Z,57.95
2022-12-17T20:24:09.698Z,58.29
2022-12-17T20:26:37.171Z,58.07
2022-12-17T20:29:05.757Z,57.67
2022-12-17T20:31:33.587Z,58.89
2022-12-17T20:34:03.421Z,59.54
2022-12-17T20:36:31.072Z,58.24
2022-12-17T20:38:58.856Z,59.72
2022-12-17T20:41:28.255Z,58.94
2022-12-17T20:43:56.546Z,59.69
2022-12-17T20:46:24.924Z,59.10
2022-12-17T20:48:52.822Z,58.52
2022-12-17T20:51:23.680Z,59.53
2022-12-17T20:53:52.457Z,59.29
2022-12-17T20:56:26.624Z,59.38
2022-12-17T20:59:02.510Z,60.18
2022-12-17T21:01:32.526Z,60.67
2022-12-17T21:04:00.999Z,61.54
2022-12-17T21:06:39.391Z,61.51
2022-12-17T21:09:07.471Z,60.96
2022-12-17T21:11:36.699Z,60.83
2022-12-17T21:14:09.781Z,61.64
2022-12-17T21:16:38.443Z,61.17
2022-12-17T21:19:07.228Z,60.67
2022-12-17T21:21:37.315Z,60.49
2022-12-17T21:24:05.777Z,60.06
2022-12-17T21:26:36.222Z,60.20
2022-12-17T21:29:05.854Z,61.00
2022-12-17T21:31:37.514Z,60.94
2022-12-17T21:34:06.443Z,60.52
2022-12-17T21:36:34.624Z,60.62
2022-12-17T21:39:08.714Z,60.13
2022-12-17T21:41:44.631Z,59.95
2022-12-17T21:44:13.358Z,59.03
2022-12-17T21:46:42.553Z,58.92
2022-12-17T21:49:10.700Z,58.40
2022-12-17T21:51:38.242Z,57.22
2022-12-17T21:54:08.394Z,57.49
2022-12-17T21:56:36.539Z,58.00
2022-12-17T21:59:03.965Z,56.98
2022-12-17T22:01:33.722Z,56.98
2022-12-17T22:04:02.867Z,57.64
2022-12-17T22:06:36.369Z,57.63
2022-12-17T22:09:29.815Z,57.19
2022-12-17T22:12:24.498Z,56.98
2022-12-17T22:14:52.267Z,57.54
2022-12-17T22:17:20.124Z,58.71
2022-12-17T22:19:47.570Z,59.73
2022-12-17T22:22:15.203Z,59.27
2022-12-17T22:24:42.599Z,59.67
2022-12-17T22:27:10.006Z,60.18
2022-12-17T22:29:56.205Z,61.70
2022-12-17T22:32:42.295Z,61.92
2022-12-17T22:36:22.048Z,62.74
2022-12-17T22:41:06.144Z,63.31
2022-12-17T22:44:31.889Z,63.10
2022-12-17T22:44:41.330Z,63.19
2022-12-17T22:46:22.839Z,64.25
2022-12-17T22:48:50.222Z,64.29
2022-12-17T22:51:25.325Z,65.51
2022-12-17T22:54:09.482Z,65.14
2022-12-17T22:56:55.277Z,64.73
2022-12-17T22:59:26.042Z,65.30
2022-12-17T23:01:53.597Z,64.23
2022-12-17T23:04:21.026Z,64.99
2022-12-17T23:06:48.741Z,64.43
2022-12-17T23:09:21.082Z,63.17
2022-12-17T23:11:49.497Z,62.04
2022-12-17T23:14:17.509Z,62.04
2022-12-17T23:16:45.010Z,62.74
2022-12-17T23:19:12.913Z,62.74
2022-12-17T23:21:40.207Z,61.79
2022-12-17T23:24:07.971Z,60.94
2022-12-17T23:26:36.612Z,60.32
2022-12-17T23:29:07.782Z,60.49
2022-12-17T23:31:38.696Z,60.34
2022-12-17T23:34:06.524Z,59.89
2022-12-17T23:36:34.164Z,59.83
2022-12-17T23:39:01.572Z,59.01
2022-12-17T23:41:30.326Z,58.90
2022-12-17T23:43:58.461Z,58.88
2022-12-17T23:46:27.713Z,57.85
2022-12-17T23:48:55.712Z,57.90
2022-12-17T23:51:23.898Z,57.76
2022-12-17T23:53:51.261Z,57.94
2022-12-17T23:56:24.415Z,58.34
2022-12-17T23:58:53.917Z,58.35
